Time;durP1;ratioP1;P1;durP2;ratioP2;P2;SDS_P1;SDS_P2;PMS_P1;PMS_P2;Temp;Humidity;BMP_temperature;BMP_pressure;BME280_temperature;BME280_humidity;BME280_pressure;Samples;Min_cycle;Max_cycle;Signal;HPM_P1;HPM_P2
2022/10/09 00:01:31;;;;;;;4.60;1.17;;;;;;;;;;8264441;28;20044;-62
2022/10/09 00:05:31;;;;;;;9.48;1.38;;;;;;;;;;8261276;28;20025;-62
2022/10/09 00:09:31;;;;;;;6.93;1.30;;;;;;;;;;8263273;28;20021;-62
2022/10/09 00:13:32;;;;;;;1.77;0.95;;;;;;;;;;8263475;28;20021;-62
2022/10/09 00:17:32;;;;;;;1.70;0.93;;;;;;;;;;8262727;28;20034;-62
2022/10/09 00:21:33;;;;;;;1.77;0.93;;;;;;;;;;8261009;28;20387;-62
2022/10/09 00:25:37;;;;;;;3.58;1.17;;;;;;;;;;8265773;28;20041;-62
2022/10/09 00:29:37;;;;;;;3.40;1.00;;;;;;;;;;8272286;28;20084;-62
2022/10/09 00:33:37;;;;;;;2.63;1.10;;;;;;;;;;8271303;28;20038;-62
2022/10/09 00:37:38;;;;;;;3.53;1.00;;;;;;;;;;8273315;28;20141;-62
2022/10/09 00:41:38;;;;;;;4.03;1.10;;;;;;;;;;8269414;28;20026;-62
2022/10/09 00:45:39;;;;;;;2.88;0.93;;;;;;;;;;8272183;28;20033;-62
2022/10/09 00:49:40;;;;;;;3.72;1.15;;;;;;;;;;8270055;28;20032;-63
2022/10/09 00:53:40;;;;;;;1.80;1.05;;;;;;;;;;8272846;28;20018;-62
2022/10/09 00:57:40;;;;;;;3.05;1.10;;;;;;;;;;8269706;28;20038;-62
2022/10/09 01:01:43;;;;;;;1.63;0.90;;;;;;;;;;8270499;28;20076;-62
2022/10/09 01:05:44;;;;;;;2.07;0.80;;;;;;;;;;8271051;28;20411;-62
2022/10/09 01:10:10;;;;;;;2.53;1.00;;;;;;;;;;8271978;28;20033;-62
2022/10/09 01:14:10;;;;;;;2.63;1.10;;;;;;;;;;8271495;28;20038;-62
2022/10/09 01:18:31;;;;;;;3.90;1.10;;;;;;;;;;8268092;28;20041;-62
2022/10/09 01:22:31;;;;;;;2.20;1.10;;;;;;;;;;8268688;28;21042;-63
2022/10/09 01:26:34;;;;;;;6.65;1.00;;;;;;;;;;8269079;28;20072;-62
2022/10/09 01:30:35;;;;;;;2.20;1.17;;;;;;;;;;8270414;28;20052;-62
2022/10/09 01:34:36;;;;;;;2.83;1.20;;;;;;;;;;8270369;28;20049;-62
2022/10/09 01:38:38;;;;;;;4.15;1.10;;;;;;;;;;8268928;28;20030;-62
2022/10/09 01:42:38;;;;;;;1.95;0.90;;;;;;;;;;8277848;28;20105;-62
2022/10/09 01:46:38;;;;;;;2.43;1.00;;;;;;;;;;8275208;28;20100;-62
2022/10/09 01:50:42;;;;;;;1.97;1.20;;;;;;;;;;8278797;28;20414;-62
2022/10/09 01:55:01;;;;;;;5.30;1.23;;;;;;;;;;8277712;28;20618;-62
2022/10/09 01:59:05;;;;;;;2.83;1.25;;;;;;;;;;8276413;28;20261;-62
2022/10/09 02:03:08;;;;;;;5.72;1.20;;;;;;;;;;8274996;28;20030;-62
2022/10/09 02:07:08;;;;;;;3.13;1.65;;;;;;;;;;8275522;28;20029;-63
2022/10/09 02:11:13;;;;;;;1.30;1.10;;;;;;;;;;8274333;28;20071;-63
2022/10/09 02:15:14;;;;;;;5.22;1.20;;;;;;;;;;8276485;28;20263;-62
2022/10/09 02:19:17;;;;;;;2.28;1.00;;;;;;;;;;8277187;28;20030;-62
2022/10/09 02:23:18;;;;;;;3.17;1.10;;;;;;;;;;8277314;28;20868;-62
2022/10/09 02:27:19;;;;;;;1.70;1.10;;;;;;;;;;8276476;28;20026;-62
2022/10/09 02:31:27;;;;;;;7.13;1.45;;;;;;;;;;8275870;28;20147;-63
2022/10/09 02:35:28;;;;;;;3.75;1.15;;;;;;;;;;8274101;28;20033;-62
2022/10/09 02:39:28;;;;;;;2.78;1.30;;;;;;;;;;8276252;28;20565;-62
2022/10/09 02:43:29;;;;;;;1.38;1.10;;;;;;;;;;8274376;28;20022;-62
2022/10/09 02:47:29;;;;;;;3.08;1.65;;;;;;;;;;8276112;28;20041;-62
2022/10/09 02:51:29;;;;;;;1.20;0.90;;;;;;;;;;8274249;28;20570;-62
2022/10/09 02:55:30;;;;;;;1.73;1.00;;;;;;;;;;8275242;28;20029;-62
2022/10/09 02:59:31;;;;;;;6.28;1.10;;;;;;;;;;8276603;28;20072;-62
2022/10/09 03:03:31;;;;;;;4.25;1.55;;;;;;;;;;8275347;28;20124;-63
2022/10/09 03:07:31;;;;;;;3.53;1.30;;;;;;;;;;8272696;28;20609;-62
2022/10/09 03:11:31;;;;;;;6.47;1.37;;;;;;;;;;8274407;28;20135;-62
2022/10/09 03:15:35;;;;;;;5.90;1.40;;;;;;;;;;8273932;28;20266;-62
2022/10/09 03:19:35;;;;;;;2.93;1.40;;;;;;;;;;8274089;28;20034;-62
2022/10/09 03:23:35;;;;;;;2.22;1.00;;;;;;;;;;8273542;28;20048;-63
2022/10/09 03:27:36;;;;;;;2.40;1.35;;;;;;;;;;8274254;28;20037;-63
2022/10/09 03:31:36;;;;;;;3.13;1.38;;;;;;;;;;8273446;28;20093;-62
2022/10/09 03:35:36;;;;;;;2.78;1.65;;;;;;;;;;8273275;28;20057;-62
2022/10/09 03:39:37;;;;;;;3.45;1.55;;;;;;;;;;8273008;28;20025;-62
2022/10/09 03:43:37;;;;;;;4.60;1.43;;;;;;;;;;8272871;28;20032;-62
2022/10/09 03:47:37;;;;;;;4.68;1.58;;;;;;;;;;8270299;28;20312;-65
2022/10/09 03:51:37;;;;;;;3.13;1.50;;;;;;;;;;8273468;28;20132;-62
2022/10/09 03:55:38;;;;;;;3.45;1.60;;;;;;;;;;8272009;28;20053;-62
2022/10/09 03:59:38;;;;;;;3.65;1.60;;;;;;;;;;8272998;28;20128;-62
2022/10/09 04:03:39;;;;;;;5.63;1.90;;;;;;;;;;8267234;28;20403;-62
2022/10/09 04:07:39;;;;;;;6.20;2.00;;;;;;;;;;8272073;28;20033;-62
2022/10/09 04:11:39;;;;;;;3.25;1.75;;;;;;;;;;8268322;28;20057;-61
2022/10/09 04:15:39;;;;;;;4.85;1.95;;;;;;;;;;8269926;28;20156;-62
2022/10/09 04:19:39;;;;;;;3.20;1.90;;;;;;;;;;8269634;28;20029;-62
2022/10/09 04:23:40;;;;;;;5.32;2.33;;;;;;;;;;8270370;28;20053;-62
2022/10/09 04:27:40;;;;;;;7.57;2.30;;;;;;;;;;8272134;28;20049;-63
2022/10/09 04:31:43;;;;;;;4.82;2.25;;;;;;;;;;8269232;28;20470;-62
2022/10/09 04:35:44;;;;;;;9.25;2.15;;;;;;;;;;8267421;28;20033;-62
2022/10/09 04:39:44;;;;;;;5.10;2.45;;;;;;;;;;8268516;28;20124;-62
2022/10/09 04:43:44;;;;;;;4.93;2.67;;;;;;;;;;8270030;28;20138;-62
2022/10/09 04:47:44;;;;;;;4.53;2.60;;;;;;;;;;8270879;28;20141;-62
2022/10/09 04:51:45;;;;;;;3.97;2.60;;;;;;;;;;8268366;28;20507;-62
2022/10/09 04:55:45;;;;;;;6.90;2.53;;;;;;;;;;8266437;28;20037;-63
2022/10/09 04:59:45;;;;;;;7.85;2.60;;;;;;;;;;8269468;28;20026;-62
2022/10/09 05:03:46;;;;;;;5.90;2.42;;;;;;;;;;8266678;28;20041;-63
2022/10/09 05:07:46;;;;;;;8.40;2.67;;;;;;;;;;8265793;28;20196;-62
2022/10/09 05:11:46;;;;;;;4.07;2.60;;;;;;;;;;8267559;28;20491;-62
2022/10/09 05:15:46;;;;;;;6.78;3.45;;;;;;;;;;8267501;28;20643;-62
2022/10/09 05:19:47;;;;;;;5.53;3.30;;;;;;;;;;8268164;28;20138;-62
2022/10/09 05:23:47;;;;;;;9.07;3.58;;;;;;;;;;8267909;28;20283;-62
2022/10/09 05:27:47;;;;;;;6.50;3.47;;;;;;;;;;8268974;28;20021;-62
2022/10/09 05:31:47;;;;;;;10.90;3.60;;;;;;;;;;8263104;28;20843;-62
2022/10/09 05:35:58;;;;;;;4.50;2.80;;;;;;;;;;8268284;28;20025;-62
2022/10/09 05:39:58;;;;;;;5.68;3.72;;;;;;;;;;8267838;28;20599;-62
2022/10/09 05:44:00;;;;;;;6.30;3.80;;;;;;;;;;8271364;28;20059;-62
2022/10/09 05:48:00;;;;;;;4.97;3.60;;;;;;;;;;8270860;28;20040;-62
2022/10/09 05:52:00;;;;;;;9.98;4.25;;;;;;;;;;8269378;28;20637;-62
2022/10/09 05:56:17;;;;;;;4.70;3.33;;;;;;;;;;8267332;28;20017;-62
2022/10/09 06:00:18;;;;;;;7.35;3.13;;;;;;;;;;8270177;28;20033;-62
2022/10/09 06:04:22;;;;;;;4.38;3.30;;;;;;;;;;8271330;28;20030;-62
2022/10/09 06:08:22;;;;;;;6.22;3.10;;;;;;;;;;8272982;28;20033;-62
2022/10/09 06:12:22;;;;;;;6.10;3.60;;;;;;;;;;8273286;28;20033;-62
2022/10/09 06:16:24;;;;;;;5.63;3.20;;;;;;;;;;8271468;28;20131;-63
2022/10/09 06:20:24;;;;;;;5.30;3.22;;;;;;;;;;8270535;28;20034;-63
2022/10/09 06:24:25;;;;;;;6.80;3.33;;;;;;;;;;8270479;28;20041;-62
2022/10/09 06:28:26;;;;;;;5.03;3.28;;;;;;;;;;8275951;28;20037;-62
2022/10/09 06:32:27;;;;;;;5.10;3.38;;;;;;;;;;8275415;28;20104;-62
2022/10/09 06:36:28;;;;;;;3.58;2.90;;;;;;;;;;8275841;28;20025;-63
2022/10/09 06:40:28;;;;;;;6.32;3.20;;;;;;;;;;8275265;28;20040;-63
2022/10/09 06:44:28;;;;;;;5.53;3.37;;;;;;;;;;8278223;28;20139;-62
2022/10/09 06:48:32;;;;;;;6.70;3.38;;;;;;;;;;8271425;28;20298;-62
2022/10/09 06:52:32;;;;;;;5.68;3.28;;;;;;;;;;8273432;28;20025;-63
2022/10/09 06:56:33;;;;;;;6.15;2.90;;;;;;;;;;8274779;28;20029;-63
2022/10/09 07:00:33;;;;;;;5.28;2.95;;;;;;;;;;8276725;28;20041;-63
2022/10/09 07:04:33;;;;;;;6.70;2.80;;;;;;;;;;8273618;28;20025;-63
2022/10/09 07:08:33;;;;;;;3.55;2.80;;;;;;;;;;8275055;28;20029;-62
2022/10/09 07:12:34;;;;;;;5.20;3.10;;;;;;;;;;8274665;28;20040;-63
2022/10/09 07:16:37;;;;;;;7.55;2.78;;;;;;;;;;8279362;28;20494;-63
2022/10/09 07:20:37;;;;;;;5.60;2.70;;;;;;;;;;8274393;28;20033;-63
2022/10/09 07:24:37;;;;;;;3.47;2.38;;;;;;;;;;8273412;28;20281;-63
2022/10/09 07:28:38;;;;;;;4.97;2.53;;;;;;;;;;8273511;28;20171;-63
2022/10/09 07:32:38;;;;;;;5.25;3.03;;;;;;;;;;8269735;28;20037;-63
2022/10/09 07:36:38;;;;;;;2.83;2.00;;;;;;;;;;8272444;28;20314;-63
2022/10/09 07:40:39;;;;;;;5.05;2.30;;;;;;;;;;8270642;28;20029;-63
2022/10/09 07:44:39;;;;;;;5.60;2.30;;;;;;;;;;8270876;28;20104;-63
2022/10/09 07:48:40;;;;;;;3.17;2.20;;;;;;;;;;8270702;28;20034;-63
2022/10/09 07:52:40;;;;;;;3.23;2.20;;;;;;;;;;8272937;28;20072;-63
2022/10/09 07:56:40;;;;;;;6.30;2.50;;;;;;;;;;8272775;28;20603;-63
2022/10/09 08:00:41;;;;;;;3.07;2.00;;;;;;;;;;8273802;28;20053;-63
2022/10/09 08:04:41;;;;;;;3.78;1.92;;;;;;;;;;8271933;28;20025;-63
2022/10/09 08:08:41;;;;;;;4.88;1.83;;;;;;;;;;8273447;28;20032;-63
2022/10/09 08:12:41;;;;;;;4.63;1.70;;;;;;;;;;8272891;28;20021;-63
2022/10/09 08:16:42;;;;;;;3.28;1.92;;;;;;;;;;8274409;28;20275;-63
2022/10/09 08:20:42;;;;;;;3.63;2.03;;;;;;;;;;8272104;28;20068;-63
2022/10/09 08:24:42;;;;;;;5.85;2.20;;;;;;;;;;8272827;28;20888;-63
2022/10/09 08:28:42;;;;;;;4.20;2.00;;;;;;;;;;8272944;28;20489;-63
2022/10/09 08:32:42;;;;;;;5.30;2.20;;;;;;;;;;8272386;28;20049;-63
2022/10/09 08:36:43;;;;;;;4.00;1.98;;;;;;;;;;8271219;28;20256;-63
2022/10/09 08:40:46;;;;;;;3.75;2.30;;;;;;;;;;8272365;28;20453;-63
2022/10/09 08:44:48;;;;;;;3.65;2.10;;;;;;;;;;8273422;28;20137;-63
2022/10/09 08:48:49;;;;;;;4.45;2.10;;;;;;;;;;8270579;28;20041;-63
2022/10/09 08:53:08;;;;;;;4.22;2.20;;;;;;;;;;8271992;28;20025;-62
2022/10/09 08:57:11;;;;;;;4.78;2.40;;;;;;;;;;8270437;28;20493;-63
2022/10/09 09:01:27;;;;;;;5.20;2.30;;;;;;;;;;8270968;28;20037;-62
2022/10/09 09:05:39;;;;;;;5.32;2.40;;;;;;;;;;8270489;28;20494;-63
2022/10/09 09:09:39;;;;;;;5.68;2.08;;;;;;;;;;8264960;28;20033;-62
2022/10/09 09:13:52;;;;;;;6.25;2.50;;;;;;;;;;8265741;28;20032;-62
2022/10/09 09:17:52;;;;;;;4.13;2.40;;;;;;;;;;8267328;28;20497;-62
2022/10/09 09:21:52;;;;;;;7.07;2.67;;;;;;;;;;8267748;28;20029;-63
2022/10/09 09:25:52;;;;;;;4.28;2.33;;;;;;;;;;8268088;28;20029;-62
2022/10/09 09:30:13;;;;;;;4.50;2.70;;;;;;;;;;8270621;28;20330;-62
2022/10/09 09:34:19;;;;;;;5.15;2.22;;;;;;;;;;8269995;28;20423;-62
2022/10/09 09:38:19;;;;;;;4.95;2.60;;;;;;;;;;8267013;28;20469;-62
2022/10/09 09:42:20;;;;;;;7.35;2.67;;;;;;;;;;8266552;28;20056;-63
2022/10/09 09:46:25;;;;;;;5.85;2.35;;;;;;;;;;8266862;28;20041;-61
2022/10/09 09:50:30;;;;;;;5.70;2.50;;;;;;;;;;8267826;28;20038;-62
2022/10/09 09:54:31;;;;;;;8.75;2.72;;;;;;;;;;8265761;28;20021;-62
2022/10/09 09:58:54;;;;;;;6.15;2.40;;;;;;;;;;8270712;28;20029;-62
2022/10/09 10:03:09;;;;;;;8.18;2.80;;;;;;;;;;8271599;28;20558;-62
2022/10/09 10:07:09;;;;;;;6.00;2.50;;;;;;;;;;8275239;28;20026;-63
2022/10/09 10:11:15;;;;;;;6.72;2.60;;;;;;;;;;8272406;28;20064;-62
2022/10/09 10:15:20;;;;;;;5.80;2.67;;;;;;;;;;8271424;28;20052;-62
2022/10/09 10:19:25;;;;;;;10.52;2.80;;;;;;;;;;8273354;28;20494;-62
2022/10/09 10:23:32;;;;;;;4.13;2.78;;;;;;;;;;8273108;28;21135;-62
2022/10/09 10:27:34;;;;;;;6.47;3.00;;;;;;;;;;8271582;28;20041;-62
2022/10/09 10:31:44;;;;;;;10.05;3.00;;;;;;;;;;8273297;28;20037;-62
2022/10/09 10:35:48;;;;;;;4.50;2.65;;;;;;;;;;8269886;28;20145;-62
2022/10/09 10:39:51;;;;;;;8.77;3.78;;;;;;;;;;8274204;28;20774;-62
2022/10/09 10:44:11;;;;;;;4.90;2.97;;;;;;;;;;8272885;28;20132;-62
2022/10/09 10:48:14;;;;;;;7.13;2.85;;;;;;;;;;8270277;28;20030;-63
2022/10/09 10:52:25;;;;;;;5.40;3.00;;;;;;;;;;8271944;28;20029;-62
2022/10/09 10:56:28;;;;;;;6.55;3.10;;;;;;;;;;8270305;28;20081;-62
2022/10/09 11:00:30;;;;;;;7.53;2.70;;;;;;;;;;8269600;28;20041;-62
2022/10/09 11:04:39;;;;;;;3.95;2.83;;;;;;;;;;8269327;28;20470;-62
2022/10/09 11:08:53;;;;;;;8.15;3.00;;;;;;;;;;8270825;28;20598;-63
2022/10/09 11:13:11;;;;;;;10.70;3.07;;;;;;;;;;8272119;28;20593;-63
2022/10/09 11:17:37;;;;;;;5.68;2.97;;;;;;;;;;8271207;28;20261;-63
2022/10/09 11:21:50;;;;;;;10.55;4.38;;;;;;;;;;8274010;28;20041;-63
2022/10/09 11:26:05;;;;;;;8.90;3.70;;;;;;;;;;8269490;28;20083;-62
2022/10/09 11:30:09;;;;;;;8.30;3.20;;;;;;;;;;8272506;28;20321;-63
2022/10/09 11:34:21;;;;;;;9.02;3.30;;;;;;;;;;8270665;28;20028;-63
2022/10/09 11:38:29;;;;;;;3.47;2.85;;;;;;;;;;8271643;28;20059;-62
2022/10/09 11:42:30;;;;;;;6.63;3.15;;;;;;;;;;8270891;28;20064;-63
2022/10/09 11:46:41;;;;;;;5.78;3.30;;;;;;;;;;8268080;28;20049;-63
2022/10/09 11:50:54;;;;;;;7.28;3.13;;;;;;;;;;8268344;28;20683;-63
2022/10/09 11:54:54;;;;;;;5.78;3.15;;;;;;;;;;8269959;28;20021;-62
2022/10/09 11:59:05;;;;;;;4.82;2.58;;;;;;;;;;8270139;28;20133;-63
2022/10/09 12:03:06;;;;;;;5.53;3.38;;;;;;;;;;8269294;28;20143;-62
2022/10/09 12:07:08;;;;;;;6.05;2.90;;;;;;;;;;8272061;28;20037;-62
2022/10/09 12:11:10;;;;;;;6.38;3.25;;;;;;;;;;8270213;28;20030;-62
2022/10/09 12:15:36;;;;;;;4.63;2.40;;;;;;;;;;8268738;28;20060;-63
2022/10/09 12:19:38;;;;;;;4.03;2.10;;;;;;;;;;8270572;28;20029;-62
2022/10/09 12:23:39;;;;;;;4.10;2.70;;;;;;;;;;8268853;28;20848;-62
2022/10/09 12:27:39;;;;;;;5.03;2.50;;;;;;;;;;8267796;28;20527;-62
2022/10/09 12:31:40;;;;;;;8.52;1.95;;;;;;;;;;8268099;28;20687;-63
2022/10/09 12:35:43;;;;;;;4.32;2.00;;;;;;;;;;8269451;28;20030;-63
2022/10/09 12:39:43;;;;;;;3.53;1.47;;;;;;;;;;8263010;28;20122;-63
2022/10/09 12:43:44;;;;;;;5.18;1.65;;;;;;;;;;8269479;28;20348;-62
2022/10/09 12:47:44;;;;;;;2.15;1.10;;;;;;;;;;8268270;28;20120;-63
2022/10/09 12:51:52;;;;;;;3.47;1.73;;;;;;;;;;8268927;28;20032;-62
2022/10/09 12:56:00;;;;;;;2.30;1.35;;;;;;;;;;8267959;28;20940;-61
2022/10/09 13:00:00;;;;;;;1.92;1.10;;;;;;;;;;8267923;28;20029;-62
2022/10/09 13:04:04;;;;;;;1.17;1.03;;;;;;;;;;8264803;28;20065;-62
2022/10/09 13:08:05;;;;;;;1.60;1.00;;;;;;;;;;8267433;28;20530;-61
2022/10/09 13:12:07;;;;;;;2.28;1.20;;;;;;;;;;8266384;28;20777;-61
2022/10/09 13:16:09;;;;;;;2.85;1.08;;;;;;;;;;8266361;28;20044;-61
2022/10/09 13:20:15;;;;;;;4.20;1.30;;;;;;;;;;8266303;28;20026;-61
2022/10/09 13:24:15;;;;;;;2.20;1.10;;;;;;;;;;8265417;28;20214;-63
2022/10/09 13:28:17;;;;;;;2.38;1.08;;;;;;;;;;8263942;28;20140;-63
2022/10/09 13:32:18;;;;;;;2.88;1.30;;;;;;;;;;8262709;28;20794;-63
2022/10/09 13:36:18;;;;;;;4.10;1.20;;;;;;;;;;8266305;28;20173;-63
2022/10/09 13:40:20;;;;;;;2.83;1.20;;;;;;;;;;8272521;28;20032;-62
2022/10/09 13:44:20;;;;;;;2.67;1.27;;;;;;;;;;8275300;28;20806;-62
2022/10/09 13:48:21;;;;;;;2.83;0.90;;;;;;;;;;8273020;28;20037;-62
2022/10/09 13:52:21;;;;;;;4.63;1.20;;;;;;;;;;8274083;28;20450;-63
2022/10/09 13:56:21;;;;;;;3.80;1.20;;;;;;;;;;8270515;28;21411;-62
2022/10/09 14:00:21;;;;;;;3.88;1.20;;;;;;;;;;8274116;28;20491;-63
2022/10/09 14:04:22;;;;;;;1.27;1.00;;;;;;;;;;8275462;28;20061;-63
2022/10/09 14:08:22;;;;;;;2.45;1.20;;;;;;;;;;8277073;28;20030;-62
2022/10/09 14:12:22;;;;;;;2.42;1.17;;;;;;;;;;8275235;28;20026;-62
2022/10/09 14:16:22;;;;;;;2.67;1.20;;;;;;;;;;8272475;28;20041;-63
2022/10/09 14:20:24;;;;;;;2.00;1.15;;;;;;;;;;8272765;28;20033;-63
2022/10/09 14:24:24;;;;;;;4.57;1.40;;;;;;;;;;8270402;28;20026;-62
2022/10/09 14:28:24;;;;;;;4.38;1.27;;;;;;;;;;8272080;28;20598;-62
2022/10/09 14:32:25;;;;;;;2.08;1.10;;;;;;;;;;8272781;28;20290;-62
2022/10/09 14:36:26;;;;;;;3.38;1.30;;;;;;;;;;8270803;28;20466;-63
2022/10/09 14:40:26;;;;;;;3.17;1.25;;;;;;;;;;8266916;28;20194;-62
2022/10/09 14:44:26;;;;;;;3.90;1.80;;;;;;;;;;8270297;28;20719;-62
2022/10/09 14:48:26;;;;;;;2.03;1.47;;;;;;;;;;8269450;28;20050;-62
2022/10/09 14:52:27;;;;;;;3.63;1.60;;;;;;;;;;8271761;28;20252;-62
2022/10/09 14:56:27;;;;;;;2.65;1.23;;;;;;;;;;8269479;28;20041;-62
2022/10/09 15:00:27;;;;;;;1.85;1.30;;;;;;;;;;8270183;28;20030;-61
2022/10/09 15:04:28;;;;;;;2.15;1.30;;;;;;;;;;8269441;28;20897;-62
2022/10/09 15:08:28;;;;;;;4.97;1.50;;;;;;;;;;8271787;28;20029;-61
2022/10/09 15:12:29;;;;;;;7.07;1.33;;;;;;;;;;8271528;28;20099;-61
2022/10/09 15:16:29;;;;;;;2.93;1.30;;;;;;;;;;8268530;28;20510;-61
2022/10/09 15:20:29;;;;;;;1.67;1.58;;;;;;;;;;8267746;28;20284;-61
2022/10/09 15:24:30;;;;;;;2.67;1.50;;;;;;;;;;8268150;28;20746;-61
2022/10/09 15:28:30;;;;;;;2.45;1.48;;;;;;;;;;8271706;28;20033;-61
2022/10/09 15:32:30;;;;;;;3.55;1.50;;;;;;;;;;8271691;28;20504;-62
2022/10/09 15:36:32;;;;;;;4.15;1.63;;;;;;;;;;8267023;28;20060;-62
2022/10/09 15:40:46;;;;;;;5.35;1.70;;;;;;;;;;8264606;28;20134;-61
2022/10/09 15:44:46;;;;;;;2.33;1.30;;;;;;;;;;8267661;28;20381;-61
2022/10/09 15:48:48;;;;;;;3.08;1.58;;;;;;;;;;8268781;28;20069;-61
2022/10/09 15:52:48;;;;;;;3.17;1.40;;;;;;;;;;8265582;28;20487;-62
2022/10/09 15:56:48;;;;;;;4.03;1.42;;;;;;;;;;8264453;28;20128;-63
2022/10/09 16:00:48;;;;;;;2.67;1.48;;;;;;;;;;8266022;28;20038;-61
2022/10/09 16:04:49;;;;;;;2.90;1.30;;;;;;;;;;8266139;28;20079;-61
2022/10/09 16:08:53;;;;;;;2.97;1.10;;;;;;;;;;8268029;28;20797;-61
2022/10/09 16:12:53;;;;;;;3.08;1.55;;;;;;;;;;8268220;28;21215;-61
2022/10/09 16:16:53;;;;;;;2.25;1.15;;;;;;;;;;8266993;28;20062;-61
2022/10/09 16:20:54;;;;;;;1.80;1.33;;;;;;;;;;8266288;28;20522;-61
2022/10/09 16:24:54;;;;;;;1.55;1.20;;;;;;;;;;8264407;28;20790;-62
2022/10/09 16:28:54;;;;;;;2.17;1.20;;;;;;;;;;8265815;28;20100;-61
2022/10/09 16:32:55;;;;;;;2.20;1.30;;;;;;;;;;8274823;28;20056;-63
2022/10/09 16:36:56;;;;;;;3.05;1.00;;;;;;;;;;8260924;28;20469;-62
2022/10/09 16:40:56;;;;;;;1.23;1.10;;;;;;;;;;8256280;28;20120;-62
2022/10/09 16:44:56;;;;;;;1.98;1.20;;;;;;;;;;8261464;28;20069;-61
2022/10/09 16:48:57;;;;;;;2.38;1.20;;;;;;;;;;8258092;28;20528;-61
2022/10/09 16:52:58;;;;;;;2.90;1.30;;;;;;;;;;8258777;28;20026;-61
2022/10/09 16:56:58;;;;;;;1.60;1.20;;;;;;;;;;8258566;28;20406;-61
2022/10/09 17:01:01;;;;;;;2.83;1.38;;;;;;;;;;8259842;28;20040;-61
2022/10/09 17:05:01;;;;;;;1.20;1.10;;;;;;;;;;8259478;28;20025;-61
2022/10/09 17:09:02;;;;;;;3.10;1.13;;;;;;;;;;8257554;28;20022;-62
2022/10/09 17:13:02;;;;;;;2.67;1.40;;;;;;;;;;8261929;28;20037;-61
2022/10/09 17:17:03;;;;;;;2.97;1.52;;;;;;;;;;8260907;28;20108;-61
2022/10/09 17:21:04;;;;;;;2.05;1.23;;;;;;;;;;8258392;28;20021;-61
2022/10/09 17:25:04;;;;;;;2.75;1.40;;;;;;;;;;8256854;28;20410;-61
2022/10/09 17:29:05;;;;;;;3.22;1.50;;;;;;;;;;8260030;28;20267;-62
2022/10/09 17:33:05;;;;;;;2.88;1.80;;;;;;;;;;8257520;28;20037;-61
2022/10/09 17:37:05;;;;;;;2.30;1.65;;;;;;;;;;8256703;28;20281;-61
2022/10/09 17:41:06;;;;;;;3.38;1.60;;;;;;;;;;8257017;28;20041;-61
2022/10/09 17:45:07;;;;;;;5.30;1.65;;;;;;;;;;8258928;28;20107;-61
2022/10/09 17:49:07;;;;;;;2.65;1.55;;;;;;;;;;8256072;28;20029;-61
2022/10/09 17:53:08;;;;;;;3.08;1.40;;;;;;;;;;8258766;28;20390;-61
2022/10/09 17:57:11;;;;;;;7.00;2.95;;;;;;;;;;8258109;28;20398;-61
2022/10/09 18:01:12;;;;;;;3.60;2.30;;;;;;;;;;8258349;28;20034;-61
2022/10/09 18:05:13;;;;;;;3.55;2.05;;;;;;;;;;8259468;28;20029;-61
2022/10/09 18:09:13;;;;;;;5.32;1.63;;;;;;;;;;8255789;28;20121;-61
2022/10/09 18:13:13;;;;;;;2.58;1.77;;;;;;;;;;8257840;28;20120;-61
2022/10/09 18:17:13;;;;;;;1.98;1.60;;;;;;;;;;8255951;28;20137;-61
2022/10/09 18:21:15;;;;;;;3.65;1.75;;;;;;;;;;8256737;28;21214;-61
2022/10/09 18:25:16;;;;;;;2.33;1.92;;;;;;;;;;8262692;28;20539;-61
2022/10/09 18:29:16;;;;;;;3.97;2.13;;;;;;;;;;8262360;28;20112;-61
2022/10/09 18:33:16;;;;;;;2.85;1.75;;;;;;;;;;8261896;28;20038;-61
2022/10/09 18:37:18;;;;;;;2.83;1.90;;;;;;;;;;8263568;28;20018;-61
2022/10/09 18:41:19;;;;;;;1.60;1.50;;;;;;;;;;8263068;28;20304;-61
2022/10/09 18:45:19;;;;;;;4.00;2.28;;;;;;;;;;8263642;28;20080;-61
2022/10/09 18:49:21;;;;;;;2.87;1.87;;;;;;;;;;8261765;28;20034;-61
2022/10/09 18:53:21;;;;;;;3.05;1.98;;;;;;;;;;8261133;28;20482;-61
2022/10/09 18:57:22;;;;;;;2.88;1.90;;;;;;;;;;8261991;28;20027;-61
2022/10/09 19:01:22;;;;;;;4.07;2.10;;;;;;;;;;8260405;28;20037;-62
2022/10/09 19:05:23;;;;;;;3.20;2.03;;;;;;;;;;8261493;28;20033;-61
2022/10/09 19:09:23;;;;;;;3.25;1.90;;;;;;;;;;8260694;28;20025;-61
2022/10/09 19:13:24;;;;;;;2.83;1.70;;;;;;;;;;8261073;28;20682;-61
2022/10/09 19:17:24;;;;;;;3.47;1.93;;;;;;;;;;8259837;28;20041;-61
2022/10/09 19:21:24;;;;;;;2.95;1.83;;;;;;;;;;8262501;28;20801;-61
2022/10/09 19:25:24;;;;;;;2.63;2.15;;;;;;;;;;8259042;28;20572;-61
2022/10/09 19:29:25;;;;;;;4.35;2.78;;;;;;;;;;8262890;28;20506;-61
2022/10/09 19:33:25;;;;;;;5.43;2.80;;;;;;;;;;8262445;28;20473;-61
2022/10/09 19:37:25;;;;;;;4.00;2.53;;;;;;;;;;8262656;28;20033;-61
2022/10/09 19:41:25;;;;;;;5.73;2.93;;;;;;;;;;8262851;28;20026;-63
2022/10/09 19:45:26;;;;;;;4.38;2.50;;;;;;;;;;8264229;28;20740;-61
2022/10/09 19:49:30;;;;;;;3.90;2.60;;;;;;;;;;8260467;28;20022;-62
2022/10/09 19:53:30;;;;;;;3.67;2.40;;;;;;;;;;8262106;28;20194;-62
2022/10/09 19:57:30;;;;;;;4.30;2.67;;;;;;;;;;8263824;28;20029;-62
2022/10/09 20:01:33;;;;;;;4.65;2.70;;;;;;;;;;8262453;28;20439;-61
2022/10/09 20:05:34;;;;;;;4.22;2.40;;;;;;;;;;8264476;28;20438;-62
2022/10/09 20:09:34;;;;;;;3.80;2.50;;;;;;;;;;8263493;28;20026;-61
2022/10/09 20:13:35;;;;;;;5.30;2.47;;;;;;;;;;8261988;28;20272;-61
2022/10/09 20:17:35;;;;;;;3.53;2.58;;;;;;;;;;8262986;28;20554;-61
2022/10/09 20:21:35;;;;;;;3.15;2.10;;;;;;;;;;8263122;28;20032;-61
2022/10/09 20:25:35;;;;;;;3.30;2.33;;;;;;;;;;8262539;28;20111;-61
2022/10/09 20:29:36;;;;;;;6.65;2.50;;;;;;;;;;8262872;28;20040;-61
2022/10/09 20:33:37;;;;;;;4.30;2.15;;;;;;;;;;8263359;28;20033;-61
2022/10/09 20:37:38;;;;;;;3.72;2.13;;;;;;;;;;8261993;28;20050;-61
2022/10/09 20:41:38;;;;;;;3.85;2.10;;;;;;;;;;8261788;28;20025;-61
2022/10/09 20:45:39;;;;;;;3.60;2.25;;;;;;;;;;8260474;28;20046;-62
2022/10/09 20:49:42;;;;;;;2.97;2.20;;;;;;;;;;8262473;28;20542;-62
2022/10/09 20:53:42;;;;;;;3.28;2.17;;;;;;;;;;8259750;28;20020;-62
2022/10/09 20:57:42;;;;;;;4.32;2.40;;;;;;;;;;8258601;28;20026;-62
2022/10/09 21:01:43;;;;;;;3.45;1.90;;;;;;;;;;8257046;28;20506;-62
2022/10/09 21:05:43;;;;;;;4.28;2.35;;;;;;;;;;8261866;28;20032;-61
2022/10/09 21:09:43;;;;;;;3.35;2.20;;;;;;;;;;8260067;28;20508;-61
2022/10/09 21:13:44;;;;;;;3.58;1.98;;;;;;;;;;8261851;28;20021;-61
2022/10/09 21:17:44;;;;;;;5.15;1.98;;;;;;;;;;8261847;28;20120;-61
2022/10/09 21:21:44;;;;;;;2.25;2.05;;;;;;;;;;8262194;28;20026;-62
2022/10/09 21:25:45;;;;;;;3.75;2.15;;;;;;;;;;8259940;28;20445;-62
2022/10/09 21:29:45;;;;;;;4.13;2.47;;;;;;;;;;8261587;28;20090;-62
2022/10/09 21:33:46;;;;;;;2.42;2.15;;;;;;;;;;8260248;28;20184;-62
2022/10/09 21:37:46;;;;;;;2.47;2.27;;;;;;;;;;8260095;28;20022;-61
2022/10/09 21:41:46;;;;;;;5.47;2.25;;;;;;;;;;8259465;28;20904;-62
2022/10/09 21:45:48;;;;;;;2.17;1.87;;;;;;;;;;8259240;28;20042;-61
2022/10/09 21:49:48;;;;;;;3.58;1.92;;;;;;;;;;8259089;28;20284;-61
2022/10/09 21:53:48;;;;;;;5.05;2.05;;;;;;;;;;8262091;28;20793;-61
2022/10/09 21:57:48;;;;;;;3.70;1.90;;;;;;;;;;8263119;28;20036;-61
2022/10/09 22:01:48;;;;;;;4.03;2.00;;;;;;;;;;8265939;28;20764;-62
2022/10/09 22:05:49;;;;;;;4.18;1.70;;;;;;;;;;8267070;28;20018;-61
2022/10/09 22:09:49;;;;;;;3.47;1.80;;;;;;;;;;8263724;28;20253;-61
2022/10/09 22:13:49;;;;;;;3.22;2.10;;;;;;;;;;8266904;28;20634;-61
2022/10/09 22:17:49;;;;;;;3.57;2.17;;;;;;;;;;8265116;28;20585;-61
2022/10/09 22:21:49;;;;;;;3.05;2.10;;;;;;;;;;8262447;28;20033;-61
2022/10/09 22:25:56;;;;;;;4.20;2.05;;;;;;;;;;8267120;28;20485;-62
2022/10/09 22:29:57;;;;;;;2.60;2.40;;;;;;;;;;8267122;28;20440;-62
2022/10/09 22:33:58;;;;;;;3.85;2.50;;;;;;;;;;8275908;28;20252;-61
2022/10/09 22:37:58;;;;;;;4.70;2.10;;;;;;;;;;8274530;28;20014;-62
2022/10/09 22:41:58;;;;;;;3.30;2.05;;;;;;;;;;8269266;28;20550;-61
2022/10/09 22:45:58;;;;;;;2.92;1.80;;;;;;;;;;8272998;28;20928;-61
2022/10/09 22:49:59;;;;;;;2.30;1.73;;;;;;;;;;8269126;28;20056;-61
2022/10/09 22:53:59;;;;;;;3.28;1.80;;;;;;;;;;8270477;28;20104;-62
2022/10/09 22:57:59;;;;;;;2.30;1.90;;;;;;;;;;8272356;28;20026;-61
2022/10/09 23:02:00;;;;;;;3.35;1.95;;;;;;;;;;8271643;28;20030;-62
2022/10/09 23:06:07;;;;;;;3.03;2.00;;;;;;;;;;8269333;28;20053;-62
2022/10/09 23:10:07;;;;;;;4.40;2.03;;;;;;;;;;8271220;28;20303;-62
2022/10/09 23:14:09;;;;;;;4.07;1.80;;;;;;;;;;8272342;28;20414;-62
2022/10/09 23:18:09;;;;;;;5.10;2.20;;;;;;;;;;8266905;28;20038;-62
2022/10/09 23:22:09;;;;;;;3.03;2.00;;;;;;;;;;8277822;28;20679;-61
2022/10/09 23:26:12;;;;;;;3.47;1.80;;;;;;;;;;8270737;28;20603;-61
2022/10/09 23:30:12;;;;;;;4.60;2.22;;;;;;;;;;8267661;28;20390;-61
2022/10/09 23:34:12;;;;;;;3.63;2.95;;;;;;;;;;8267964;28;20280;-62
2022/10/09 23:38:13;;;;;;;18.95;9.68;;;;;;;;;;8271079;28;20026;-61
2022/10/09 23:42:13;;;;;;;16.88;8.85;;;;;;;;;;8270776;28;20036;-62
2022/10/09 23:46:17;;;;;;;15.37;8.93;;;;;;;;;;8271167;28;20096;-62
2022/10/09 23:50:17;;;;;;;;;;;;;;;;;;8266936;28;20291;-61
2022/10/09 23:54:17;;;;;;;8.30;5.10;;;;;;;;;;8270532;28;20230;-62
2022/10/09 23:58:18;;;;;;;11.90;4.70;;;;;;;;;;8271244;28;20753;-62
